Kirkland Lake, Canada
Current Conditions -  °F | °C
As of 4:14 AM on Saturday 25 Oct 2014 (Local Time) from CYXR Reporting Station
Overcast Overcast  
Wind Chill: 37°   Ceiling: 13000
Heat Index: 43°   Visibility: NA
Dew Point: 43°   Wind: 12mph
Humidity: 100%   Direction: 160°SSE
Pressure: 29.65"   Gusts: NA
Location:  48.15°N, 80.04°W
Report Text: CYXR 250814Z AUTO 16010KT SCT010 OVC130 06/06 A2965 RMK WX MISG VIS MISG PCPN MISG SLP045
Loading
Personal Weather Stations






























Interactive Weather Map
Tropical Storm Tracking
New forecast layout! Learn more

10-Day Weather Forecast

Advertisements
Track Severe Weather on mobile